Time;durP1;ratioP1;P1;durP2;ratioP2;P2;SDS_P1;SDS_P2;PMS_P1;PMS_P2;Temp;Humidity;BMP_temperature;BMP_pressure;BME280_temperature;BME280_humidity;BME280_pressure;Samples;Min_cycle;Max_cycle;Signal;HPM_P1;HPM_P2
2023/01/13 00:00:54;;;;;;;1.17;0.43;;;;;;;9.32;100.00;98715.88;5042737;28;20057;-81
2023/01/13 00:03:20;;;;;;;0.40;0.20;;;;;;;9.27;100.00;98714.03;5042954;28;20270;-80
2023/01/13 00:05:45;;;;;;;2.05;1.13;;;;;;;9.23;100.00;98705.59;5043104;28;20343;-80
2023/01/13 00:08:10;;;;;;;12.32;2.40;;;;;;;9.22;100.00;98706.69;5043354;28;20080;-80
2023/01/13 00:10:35;;;;;;;1.50;0.47;;;;;;;9.25;100.00;98720.84;5043589;28;20165;-81
2023/01/13 00:13:03;;;;;;;2.55;0.30;;;;;;;9.31;100.00;98722.44;5042318;28;20292;-81
2023/01/13 00:15:28;;;;;;;1.25;0.40;;;;;;;9.28;100.00;98722.97;5043025;28;20171;-82
2023/01/13 00:17:53;;;;;;;3.10;0.30;;;;;;;9.25;100.00;98726.28;5042107;28;20036;-80
2023/01/13 00:20:19;;;;;;;0.50;0.28;;;;;;;9.27;100.00;98724.09;5041270;28;20270;-81
2023/01/13 00:22:44;;;;;;;1.20;0.43;;;;;;;9.25;100.00;98718.94;5042420;28;20275;-81
2023/01/13 00:25:09;;;;;;;1.47;0.20;;;;;;;9.22;100.00;98723.03;5042827;28;20367;-81
2023/01/13 00:27:34;;;;;;;0.65;0.20;;;;;;;9.26;100.00;98703.41;5043227;28;20254;-80
2023/01/13 00:30:00;;;;;;;1.02;0.40;;;;;;;9.31;100.00;98703.38;5046400;28;20517;-81
2023/01/13 00:32:25;;;;;;;0.45;0.20;;;;;;;9.26;99.57;98708.84;5046378;28;20029;-80
2023/01/13 00:34:51;;;;;;;2.08;0.50;;;;;;;9.27;99.32;98713.22;5046534;28;20453;-81
2023/01/13 00:37:16;;;;;;;0.88;0.22;;;;;;;9.34;97.94;98710.97;5045739;28;20025;-81
2023/01/13 00:39:41;;;;;;;1.33;0.60;;;;;;;9.41;98.08;98703.31;5046630;28;20036;-82
2023/01/13 00:44:51;;;;;;;;;;;;;;;9.42;98.46;98694.06;5046045;28;20335;-81
2023/01/13 00:47:17;;;;;;;1.73;0.50;;;;;;;9.35;98.85;98696.28;5045767;28;20300;-81
2023/01/13 00:49:42;;;;;;;1.02;0.32;;;;;;;9.35;98.30;98699.00;5046298;28;20056;-80
2023/01/13 00:52:07;;;;;;;2.83;0.50;;;;;;;9.30;98.26;98697.13;5045801;28;20478;-81
2023/01/13 00:54:32;;;;;;;3.43;1.23;;;;;;;9.32;98.03;98713.16;5045656;28;20039;-81
2023/01/13 00:56:58;;;;;;;2.17;0.50;;;;;;;9.34;97.28;98706.34;5046005;28;20749;-81
2023/01/13 00:59:23;;;;;;;1.85;0.50;;;;;;;9.30;96.78;98718.88;5045673;28;20266;-81
2023/01/13 01:01:48;;;;;;;4.40;0.50;;;;;;;9.32;95.93;98726.75;5045445;28;20047;-81
2023/01/13 01:04:16;;;;;;;3.27;1.20;;;;;;;9.25;94.98;98707.22;5045795;28;20047;-81
2023/01/13 01:06:42;;;;;;;2.03;0.40;;;;;;;9.31;95.33;98715.09;5045447;28;20281;-80
2023/01/13 01:09:09;;;;;;;4.43;0.70;;;;;;;9.24;94.45;98709.13;5045216;28;20058;-80
2023/01/13 01:11:34;;;;;;;2.80;0.95;;;;;;;9.23;94.25;98721.91;5045477;28;20272;-81
2023/01/13 01:14:02;;;;;;;2.65;0.80;;;;;;;9.20;94.48;98719.78;5045569;28;20025;-80
2023/01/13 01:16:32;;;;;;;2.03;0.50;;;;;;;9.17;94.88;98706.72;5045235;28;20745;-81
2023/01/13 01:18:58;;;;;;;3.60;0.82;;;;;;;9.20;94.63;98714.31;5045095;28;20033;-81
2023/01/13 01:21:24;;;;;;;4.82;1.20;;;;;;;9.14;93.29;98709.19;5045393;28;20037;-81
2023/01/13 01:23:50;;;;;;;2.35;0.50;;;;;;;9.20;92.37;98729.81;5045488;28;20033;-78
2023/01/13 01:26:18;;;;;;;3.88;0.90;;;;;;;9.15;91.80;98733.41;5045287;28;20128;-80
2023/01/13 01:28:44;;;;;;;6.10;1.13;;;;;;;9.24;92.87;98714.56;5044882;28;20033;-79
2023/01/13 01:31:15;;;;;;;8.38;1.05;;;;;;;9.17;92.53;98720.31;5045286;28;20033;-80
2023/01/13 01:33:40;;;;;;;5.97;0.95;;;;;;;9.21;92.41;98709.72;5044878;28;20525;-81
2023/01/13 01:36:07;;;;;;;5.78;0.60;;;;;;;9.25;91.72;98709.94;5045559;28;20135;-80
2023/01/13 01:38:32;;;;;;;3.60;1.05;;;;;;;9.28;91.55;98684.91;5044455;28;20090;-80
2023/01/13 01:40:58;;;;;;;3.63;1.00;;;;;;;9.21;90.81;98721.38;5045247;28;20420;-81
2023/01/13 01:43:58;;;;;;;7.40;1.08;;;;;;;9.02;89.91;98734.81;5044863;28;20056;-80
2023/01/13 01:46:44;;;;;;;5.28;2.03;;;;;;;9.06;90.87;98745.94;5045075;28;20091;-80
2023/01/13 01:49:23;;;;;;;5.50;2.08;;;;;;;9.09;91.18;98762.50;5044161;28;20045;-81
2023/01/13 01:51:55;;;;;;;25.58;1.25;;;;;;;8.96;91.02;98763.13;5045045;28;20029;-80
2023/01/13 01:54:29;;;;;;;4.35;1.55;;;;;;;9.03;91.33;98741.09;5044901;28;20466;-81
2023/01/13 01:56:55;;;;;;;5.97;0.80;;;;;;;8.94;90.58;98711.75;5045121;28;20033;-81
2023/01/13 01:59:20;;;;;;;9.43;1.95;;;;;;;9.05;90.54;98726.09;5044716;28;20591;-80
2023/01/13 02:01:47;;;;;;;4.78;1.45;;;;;;;9.02;89.80;98734.81;5044769;28;20097;-80
2023/01/13 02:04:22;;;;;;;7.35;2.28;;;;;;;9.07;89.70;98723.13;5044848;28;20044;-81
2023/01/13 02:10:13;;;;;;;5.93;1.83;;;;;;;9.12;89.93;98739.38;5041150;28;20059;-80
2023/01/13 02:12:41;;;;;;;6.38;1.00;;;;;;;9.19;88.79;98731.72;5043637;28;20040;-82
2023/01/13 02:15:12;;;;;;;4.85;1.00;;;;;;;9.12;89.01;98728.50;5044402;28;20482;-80
2023/01/13 02:18:01;;;;;;;4.85;1.02;;;;;;;9.01;88.05;98727.75;5043577;28;20055;-81
2023/01/13 02:20:37;;;;;;;4.80;1.92;;;;;;;9.04;88.33;98731.81;5044446;28;20029;-80
2023/01/13 02:26:44;;;;;;;5.40;0.80;;;;;;;9.02;88.15;98728.56;5043737;28;20131;-81
2023/01/13 02:32:24;;;;;;;4.38;0.70;;;;;;;9.14;87.55;98728.22;5044336;28;20090;-79
2023/01/13 02:35:02;;;;;;;4.70;1.45;;;;;;;9.16;86.66;98740.47;5044099;28;20074;-81
2023/01/13 02:37:30;;;;;;;5.68;0.85;;;;;;;9.11;87.09;98733.13;5043649;28;20040;-80
2023/01/13 02:40:04;;;;;;;3.22;1.33;;;;;;;9.08;86.30;98730.16;5043604;28;20037;-80
2023/01/13 02:45:27;;;;;;;4.68;0.80;;;;;;;8.95;85.93;98735.13;5043781;28;20063;-80
2023/01/13 02:47:55;;;;;;;4.97;0.93;;;;;;;8.98;85.53;98737.28;5043494;28;20145;-79
2023/01/13 02:50:30;;;;;;;4.72;1.33;;;;;;;8.98;84.60;98723.69;5043036;28;20127;-81
2023/01/13 02:53:09;;;;;;;4.03;0.95;;;;;;;8.94;84.72;98733.50;5043829;28;20631;-80
2023/01/13 02:55:43;;;;;;;2.28;0.63;;;;;;;8.92;83.18;98730.25;5043312;28;20098;-81
2023/01/13 02:58:11;;;;;;;3.25;0.60;;;;;;;8.80;82.61;98732.47;5043120;28;20064;-81
2023/01/13 03:00:38;;;;;;;4.35;0.63;;;;;;;8.81;82.55;98723.22;5043491;28;20124;-80
2023/01/13 03:03:03;;;;;;;4.30;1.60;;;;;;;8.76;81.95;98732.22;5043955;28;20049;-81
2023/01/13 03:05:32;;;;;;;4.53;0.80;;;;;;;8.69;80.46;98724.34;5043516;28;20020;-80
2023/01/13 03:08:32;;;;;;;4.82;0.88;;;;;;;8.55;80.38;98726.81;5043219;28;20064;-80
2023/01/13 03:11:10;;;;;;;3.55;1.23;;;;;;;8.56;79.71;98733.09;5038579;28;20131;-81
2023/01/13 03:13:47;;;;;;;4.80;1.02;;;;;;;8.47;78.76;98739.06;5043375;28;20117;-80
2023/01/13 03:16:38;;;;;;;3.90;1.50;;;;;;;8.48;79.13;98740.69;5043642;28;20033;-80
2023/01/13 03:19:23;;;;;;;3.53;0.95;;;;;;;8.44;78.85;98736.09;5042902;28;20029;-80
2023/01/13 03:22:06;;;;;;;5.00;0.88;;;;;;;8.48;78.90;98726.31;5043138;28;20032;-80
2023/01/13 03:24:49;;;;;;;4.50;0.95;;;;;;;8.59;79.15;98729.81;5043506;28;20469;-80
2023/01/13 03:27:38;;;;;;;6.97;1.38;;;;;;;8.53;78.35;98723.56;5042739;28;20068;-80
2023/01/13 03:30:14;;;;;;;4.78;0.98;;;;;;;8.36;78.36;98715.75;5043085;28;20086;-80
2023/01/13 03:32:42;;;;;;;4.82;1.20;;;;;;;8.37;78.08;98709.22;5043285;28;20070;-80
2023/01/13 03:35:22;;;;;;;4.68;1.08;;;;;;;8.14;78.16;98716.88;5043052;28;20033;-81
2023/01/13 03:37:58;;;;;;;6.40;0.95;;;;;;;8.22;77.83;98712.78;5042724;28;20040;-81
2023/01/13 03:40:28;;;;;;;4.75;0.88;;;;;;;8.33;77.63;98713.56;5042539;28;20398;-79
2023/01/13 03:45:52;;;;;;;3.72;1.40;;;;;;;8.14;78.14;98709.53;5043210;28;20513;-80
2023/01/13 03:48:21;;;;;;;5.07;1.23;;;;;;;8.32;78.29;98711.97;5042882;28;20064;-81
2023/01/13 03:50:50;;;;;;;7.13;1.63;;;;;;;8.23;77.88;98714.41;5042991;28;20063;-80
2023/01/13 03:53:27;;;;;;;4.50;1.48;;;;;;;8.24;78.31;98722.28;5043113;28;20028;-79
2023/01/13 03:56:01;;;;;;;5.72;1.30;;;;;;;8.22;78.03;98708.16;5043267;28;20065;-80
2023/01/13 03:58:48;;;;;;;6.15;0.93;;;;;;;8.15;78.95;98707.66;5042883;28;20245;-80
2023/01/13 04:01:18;;;;;;;7.05;1.25;;;;;;;8.13;78.61;98704.41;5041833;28;20036;-81
2023/01/13 04:03:59;;;;;;;6.28;1.42;;;;;;;8.14;78.55;98711.44;5047416;28;20582;-81
2023/01/13 04:06:50;;;;;;;4.05;1.80;;;;;;;8.22;78.70;98708.16;5046852;28;20032;-80
2023/01/13 04:09:29;;;;;;;7.22;1.92;;;;;;;8.14;78.30;98711.44;5046497;28;20471;-81
2023/01/13 04:12:12;;;;;;;6.00;1.30;;;;;;;8.15;79.24;98721.22;5043303;28;20387;-80
2023/01/13 04:14:38;;;;;;;4.68;1.65;;;;;;;8.08;78.92;98717.97;5047055;28;20500;-80
2023/01/13 04:17:04;;;;;;;4.68;0.73;;;;;;;8.09;78.98;98711.47;5046948;28;20124;-80
2023/01/13 04:19:30;;;;;;;5.82;1.27;;;;;;;8.06;78.96;98713.63;5046490;28;20068;-79
2023/01/13 04:21:55;;;;;;;5.82;1.17;;;;;;;8.17;78.95;98716.34;5046814;28;20043;-81
2023/01/13 04:24:21;;;;;;;10.57;3.17;;;;;;;8.13;78.93;98712.53;5046677;28;20397;-80
2023/01/13 04:26:46;;;;;;;8.60;1.97;;;;;;;8.01;79.49;98705.50;5046446;28;20274;-81
2023/01/13 04:29:11;;;;;;;3.10;1.20;;;;;;;8.03;79.19;98711.44;5046411;28;21056;-80
2023/01/13 04:31:37;;;;;;;4.50;0.80;;;;;;;7.97;79.74;98706.31;5046341;28;20033;-81
2023/01/13 04:34:02;;;;;;;5.75;0.80;;;;;;;8.02;79.39;98717.97;5046411;28;20254;-80
2023/01/13 04:36:27;;;;;;;5.15;1.33;;;;;;;8.01;79.34;98710.94;5046918;28;20076;-80
2023/01/13 04:38:55;;;;;;;5.23;1.07;;;;;;;7.97;79.12;98712.56;5045957;28;20033;-81
2023/01/13 04:41:21;;;;;;;6.30;1.52;;;;;;;7.94;79.87;98719.34;5046400;28;20250;-81
2023/01/13 04:43:46;;;;;;;4.80;1.60;;;;;;;7.93;79.92;98711.50;5046610;28;20040;-80
2023/01/13 04:46:11;;;;;;;7.40;1.97;;;;;;;7.98;80.54;98703.31;5046021;28;20517;-81
2023/01/13 04:48:37;;;;;;;6.43;1.95;;;;;;;7.97;80.15;98700.91;5045931;28;20262;-80
2023/01/13 04:51:02;;;;;;;7.07;1.63;;;;;;;7.92;79.92;98697.09;5046546;28;20033;-80
2023/01/13 04:53:27;;;;;;;4.38;0.90;;;;;;;7.94;80.04;98694.09;5046112;28;20261;-80
2023/01/13 04:55:53;;;;;;;12.23;2.40;;;;;;;7.91;79.75;98698.16;5046367;28;20048;-80
2023/01/13 04:58:19;;;;;;;5.93;1.00;;;;;;;7.93;80.05;98689.78;5046132;28;20270;-82
2023/01/13 05:00:45;;;;;;;5.18;1.52;;;;;;;7.89;80.09;98691.41;5045697;28;20021;-81
2023/01/13 05:03:10;;;;;;;9.35;2.80;;;;;;;7.83;80.18;98691.41;5046499;28;20509;-81
2023/01/13 05:05:36;;;;;;;6.65;2.05;;;;;;;7.96;80.17;98689.22;5045809;28;20067;-81
2023/01/13 05:08:02;;;;;;;8.95;2.55;;;;;;;7.94;80.37;98694.09;5045624;28;20036;-81
2023/01/13 05:10:27;;;;;;;7.70;1.30;;;;;;;7.93;80.75;98701.44;5045582;28;20482;-79
2023/01/13 05:18:23;;;;;;;7.43;2.80;;;;;;;7.77;82.03;98691.69;5045365;28;20104;-81
2023/01/13 05:20:48;;;;;;;8.43;2.05;;;;;;;7.70;81.96;98709.06;5046144;28;20120;-81
2023/01/13 05:25:57;;;;;;;5.75;1.55;;;;;;;7.61;82.92;98672.69;5045292;28;20036;-81
2023/01/13 05:28:23;;;;;;;8.33;1.50;;;;;;;7.66;82.20;98682.72;5045183;28;20045;-79
2023/01/13 05:30:48;;;;;;;9.10;2.88;;;;;;;7.76;82.17;98696.28;5045119;28;20735;-80
2023/01/13 05:33:17;;;;;;;6.80;1.85;;;;;;;7.75;81.98;98689.22;5045661;28;20040;-79
2023/01/13 05:35:45;;;;;;;23.75;2.72;;;;;;;7.78;82.30;98694.13;5045166;28;20056;-80
2023/01/13 05:38:11;;;;;;;10.52;3.10;;;;;;;7.87;81.77;98693.59;5045114;28;20029;-81
2023/01/13 05:43:25;;;;;;;7.53;2.15;;;;;;;7.72;81.49;98725.06;5045192;28;20043;-81
2023/01/13 05:46:00;;;;;;;5.45;0.80;;;;;;;7.86;80.96;98724.50;5044681;28;20057;-81
2023/01/13 05:48:29;;;;;;;8.95;1.73;;;;;;;7.90;80.57;98723.69;5045141;28;20041;-80
2023/01/13 05:50:55;;;;;;;7.28;2.38;;;;;;;7.82;80.31;98732.38;5045174;28;20389;-83
2023/01/13 05:53:21;;;;;;;9.43;1.92;;;;;;;7.88;79.98;98734.00;5043881;28;20037;-81
2023/01/13 05:55:47;;;;;;;13.45;2.67;;;;;;;7.97;80.12;98723.44;5044606;28;20025;-81
2023/01/13 05:58:14;;;;;;;8.52;1.65;;;;;;;7.85;80.46;98709.31;5044518;28;20060;-81
2023/01/13 06:00:40;;;;;;;11.70;1.63;;;;;;;7.83;81.24;98715.03;5044857;28;20029;-81
2023/01/13 06:03:06;;;;;;;8.73;3.17;;;;;;;7.81;81.18;98698.19;5045255;28;20075;-81
2023/01/13 06:05:32;;;;;;;8.43;1.35;;;;;;;7.93;81.53;98712.28;5044777;28;20024;-80
2023/01/13 06:07:58;;;;;;;9.30;1.88;;;;;;;7.94;80.93;98702.25;5044573;28;20087;-80
2023/01/13 06:10:25;;;;;;;11.43;2.75;;;;;;;7.91;81.20;98700.88;5044709;28;20414;-80
2023/01/13 06:12:50;;;;;;;8.70;1.92;;;;;;;8.06;81.58;98696.53;5044384;28;20889;-81
2023/01/13 06:15:15;;;;;;;6.17;2.07;;;;;;;7.76;81.41;98715.28;5045056;28;20036;-80
2023/01/13 06:17:40;;;;;;;8.52;1.85;;;;;;;7.75;81.49;98721.78;5044398;28;20265;-82
2023/01/13 06:20:07;;;;;;;5.75;2.30;;;;;;;7.79;81.35;98706.59;5045052;28;20037;-81
2023/01/13 06:22:38;;;;;;;10.48;1.70;;;;;;;7.90;80.84;98728.31;5044479;28;20033;-80
2023/01/13 06:25:10;;;;;;;11.18;1.50;;;;;;;7.83;80.74;98718.53;5043656;28;20037;-80
2023/01/13 06:27:35;;;;;;;8.75;1.48;;;;;;;7.93;80.38;98725.06;5043895;28;20033;-80
2023/01/13 06:30:01;;;;;;;11.20;1.85;;;;;;;7.83;80.52;98718.53;5044227;28;20033;-80
2023/01/13 06:32:30;;;;;;;8.48;1.92;;;;;;;7.81;80.74;98720.69;5044615;28;20072;-81
2023/01/13 06:35:02;;;;;;;7.07;2.38;;;;;;;7.97;80.38;98734.28;5044166;28;20466;-81
2023/01/13 06:37:29;;;;;;;6.50;2.08;;;;;;;7.81;79.72;98731.56;5043837;28;20029;-80
2023/01/13 06:39:59;;;;;;;9.50;1.67;;;;;;;7.95;79.17;98717.47;5043779;28;20035;-80
2023/01/13 06:45:15;;;;;;;9.27;1.83;;;;;;;7.82;79.39;98724.25;5043631;28;20426;-81
2023/01/13 06:47:41;;;;;;;10.02;3.58;;;;;;;7.86;79.56;98727.22;5043478;28;20037;-80
2023/01/13 06:50:07;;;;;;;21.70;1.95;;;;;;;7.87;79.21;98745.16;5043430;28;20037;-81
2023/01/13 06:52:32;;;;;;;6.53;1.33;;;;;;;7.78;78.97;98742.16;5043579;28;20055;-80
2023/01/13 06:54:57;;;;;;;8.32;2.63;;;;;;;7.67;79.32;98738.59;5043500;28;20033;-80
2023/01/13 06:57:23;;;;;;;8.52;2.05;;;;;;;7.69;79.01;98739.16;5043156;28;20330;-80
2023/01/13 06:59:48;;;;;;;7.50;2.13;;;;;;;7.78;79.27;98751.09;5043438;28;20039;-80
2023/01/13 07:02:13;;;;;;;9.60;1.40;;;;;;;7.77;79.28;98751.38;5043907;28;20055;-81
2023/01/13 07:04:39;;;;;;;7.27;2.03;;;;;;;7.82;78.91;98760.34;5043461;28;20473;-80
2023/01/13 07:07:04;;;;;;;7.65;1.95;;;;;;;7.75;78.42;98758.97;5043435;28;20281;-81
2023/01/13 07:09:29;;;;;;;11.98;1.67;;;;;;;7.80;78.73;98754.38;5041438;28;20486;-81
2023/01/13 07:11:55;;;;;;;12.52;2.58;;;;;;;7.89;77.68;98754.63;5043232;28;20493;-81
2023/01/13 07:17:04;;;;;;;7.65;2.00;;;;;;;7.75;77.97;98754.34;5043153;28;20060;-81
2023/01/13 07:19:29;;;;;;;6.45;1.52;;;;;;;7.79;77.67;98760.06;5042650;28;20053;-80
2023/01/13 07:21:54;;;;;;;7.30;1.00;;;;;;;7.85;78.07;98769.03;5042634;28;20060;-80
2023/01/13 07:24:21;;;;;;;6.47;1.27;;;;;;;7.97;77.70;98776.91;5042942;28;20266;-80
2023/01/13 07:26:46;;;;;;;5.25;1.55;;;;;;;7.88;77.75;98771.19;5042767;28;20266;-80
2023/01/13 07:29:12;;;;;;;4.10;0.82;;;;;;;7.85;78.45;98779.88;5044090;28;20048;-80
2023/01/13 07:31:38;;;;;;;5.20;1.05;;;;;;;7.97;78.38;98793.19;5042937;28;20028;-81
2023/01/13 07:34:04;;;;;;;10.60;1.95;;;;;;;7.90;78.11;98782.59;5043398;28;20032;-81
2023/01/13 07:36:29;;;;;;;33.17;3.25;;;;;;;7.92;78.46;98780.41;5042615;28;20037;-80
2023/01/13 07:38:55;;;;;;;9.38;1.98;;;;;;;7.70;79.14;98779.59;5042537;28;20067;-81
2023/01/13 07:44:05;;;;;;;6.43;1.00;;;;;;;7.82;78.69;98782.06;5042993;28;20048;-81
2023/01/13 07:46:30;;;;;;;6.57;1.95;;;;;;;7.89;79.11;98786.41;5042967;28;20049;-82
2023/01/13 07:48:57;;;;;;;4.65;1.55;;;;;;;7.93;78.68;98792.91;5042732;28;20048;-81
2023/01/13 07:51:22;;;;;;;10.15;2.55;;;;;;;7.69;78.92;98785.28;5042117;28;20044;-80
2023/01/13 07:53:48;;;;;;;7.10;1.63;;;;;;;7.49;79.30;98789.59;5042503;28;20702;-80
2023/01/13 07:56:13;;;;;;;6.70;2.80;;;;;;;7.51;79.07;98795.56;5042684;28;20518;-81
2023/01/13 07:58:38;;;;;;;8.63;1.30;;;;;;;7.59;79.00;98802.34;5041816;28;20103;-80
2023/01/13 08:01:11;;;;;;;6.10;1.80;;;;;;;7.57;78.89;98805.34;5041497;28;20193;-81
2023/01/13 08:03:38;;;;;;;6.15;1.83;;;;;;;7.64;78.81;98815.13;5042684;28;20289;-82
2023/01/13 08:06:04;;;;;;;7.80;1.88;;;;;;;7.71;78.39;98815.66;5042753;28;20040;-81
2023/01/13 08:08:29;;;;;;;5.45;1.38;;;;;;;7.85;77.84;98801.59;5042143;28;20037;-80
2023/01/13 08:11:01;;;;;;;6.27;1.13;;;;;;;7.85;77.71;98807.81;5042117;28;20037;-81
2023/01/13 08:13:27;;;;;;;9.48;2.60;;;;;;;7.88;77.23;98806.47;5042475;28;20273;-80
2023/01/13 08:15:59;;;;;;;6.25;1.35;;;;;;;7.78;76.64;98829.81;5042724;28;20083;-80
2023/01/13 08:18:24;;;;;;;6.00;1.55;;;;;;;7.54;77.24;98816.75;5042432;28;20059;-81
2023/01/13 08:20:53;;;;;;;8.00;1.80;;;;;;;7.70;77.53;98814.06;5042322;28;20032;-81
2023/01/13 08:23:20;;;;;;;9.57;1.77;;;;;;;7.76;77.38;98831.16;5042903;28;20102;-80
2023/01/13 08:25:45;;;;;;;6.95;1.23;;;;;;;7.84;77.07;98830.63;5042432;28;20505;-82
2023/01/13 08:28:12;;;;;;;5.03;1.13;;;;;;;7.90;76.95;98834.97;5041477;28;20218;-80
2023/01/13 08:30:37;;;;;;;8.88;3.55;;;;;;;7.77;76.68;98833.59;5040236;28;20033;-80
2023/01/13 08:33:06;;;;;;;3.67;0.80;;;;;;;7.80;76.54;98843.09;5042590;28;20036;-82
2023/01/13 08:35:31;;;;;;;10.90;1.85;;;;;;;7.81;76.18;98856.38;5042489;28;20471;-79
2023/01/13 08:37:56;;;;;;;14.53;2.90;;;;;;;7.88;75.26;98844.47;5041479;28;20296;-80
2023/01/13 08:40:22;;;;;;;5.97;1.70;;;;;;;7.87;75.96;98869.97;5041588;28;20713;-79
2023/01/13 08:42:47;;;;;;;4.28;1.60;;;;;;;7.90;76.00;98851.25;5041694;28;20033;-81
2023/01/13 08:45:13;;;;;;;7.50;1.83;;;;;;;7.88;75.86;98855.31;5041737;28;20106;-79
2023/01/13 08:47:38;;;;;;;9.98;2.30;;;;;;;7.78;75.52;98856.13;5041459;28;20175;-80
2023/01/13 08:50:04;;;;;;;9.38;2.88;;;;;;;7.82;75.71;98858.03;5045273;28;20037;-80
2023/01/13 08:52:30;;;;;;;8.80;1.77;;;;;;;7.93;75.69;98858.84;5045513;28;20374;-80
2023/01/13 08:54:55;;;;;;;6.85;2.65;;;;;;;7.97;75.59;98875.44;5045382;28;20029;-81
2023/01/13 08:57:20;;;;;;;8.82;1.75;;;;;;;7.91;75.68;98865.66;5044609;28;20051;-80
2023/01/13 08:59:46;;;;;;;6.47;1.67;;;;;;;7.90;75.86;98864.00;5045152;28;20053;-80
2023/01/13 09:02:13;;;;;;;6.22;1.20;;;;;;;7.96;75.99;98864.81;5045403;28;20476;-81
2023/01/13 09:04:39;;;;;;;7.00;1.65;;;;;;;8.01;75.94;98871.09;5045393;28;20028;-81
2023/01/13 09:07:04;;;;;;;5.07;1.35;;;;;;;7.97;75.96;98872.72;5045188;28;20028;-81
2023/01/13 09:09:29;;;;;;;7.63;2.13;;;;;;;7.90;76.02;98859.41;5044887;28;20036;-80
2023/01/13 09:14:39;;;;;;;5.93;1.25;;;;;;;8.01;76.15;98862.13;5045729;28;20147;-81
2023/01/13 09:17:06;;;;;;;11.10;2.40;;;;;;;7.98;75.99;98855.34;5045596;28;20123;-79
2023/01/13 09:19:31;;;;;;;13.32;2.17;;;;;;;7.90;76.39;98858.56;5044643;28;20041;-80
2023/01/13 09:21:56;;;;;;;10.25;1.77;;;;;;;7.86;76.94;98865.63;5045581;28;20040;-81
2023/01/13 09:24:22;;;;;;;7.13;1.88;;;;;;;7.93;76.80;98863.47;5045219;28;20056;-81
2023/01/13 09:26:48;;;;;;;8.23;2.45;;;;;;;7.97;76.38;98859.16;5044079;28;20043;-80
2023/01/13 09:29:13;;;;;;;30.88;4.10;;;;;;;8.00;76.07;98871.34;5044982;28;20041;-82
2023/01/13 09:31:39;;;;;;;5.15;2.17;;;;;;;7.89;76.87;98862.38;5046171;28;20263;-84
2023/01/13 09:36:49;;;;;;;6.07;1.52;;;;;;;8.08;76.48;98870.00;5045552;28;20110;-80
2023/01/13 09:39:15;;;;;;;13.80;2.55;;;;;;;8.02;75.82;98861.03;5045430;28;20037;-80
2023/01/13 09:44:44;;;;;;;5.78;2.28;;;;;;;7.82;75.67;98863.47;5045379;28;20215;-81
2023/01/13 09:47:23;;;;;;;9.95;3.22;;;;;;;7.86;75.82;98879.19;5044354;28;20033;-81
2023/01/13 09:49:48;;;;;;;11.77;3.05;;;;;;;7.83;75.95;98875.13;5044677;28;20758;-81
2023/01/13 09:52:24;;;;;;;6.82;3.17;;;;;;;7.81;75.46;98861.03;5045186;28;20029;-87
2023/01/13 09:55:04;;;;;;;9.93;2.72;;;;;;;7.92;75.46;98895.22;5045565;28;20041;-82
2023/01/13 09:57:37;;;;;;;7.82;1.88;;;;;;;7.89;75.86;98884.09;5044114;28;20045;-80
2023/01/13 10:00:21;;;;;;;9.32;2.47;;;;;;;7.92;75.34;98887.09;5045318;28;20029;-81
2023/01/13 10:03:19;;;;;;;13.43;3.78;;;;;;;7.92;75.52;98872.69;5044633;28;20032;-80
2023/01/13 10:06:05;;;;;;;9.40;3.53;;;;;;;8.01;76.53;98887.38;5043659;28;20037;-81
2023/01/13 10:08:33;;;;;;;19.20;3.58;;;;;;;7.99;76.11;98888.72;5044329;28;20123;-82
2023/01/13 10:13:12;;;;;;;9.73;3.17;;;;;;;7.97;76.28;98889.00;5044345;28;20037;-80
2023/01/13 10:13:51;;;;;;;29.77;4.22;;;;;;;7.98;75.79;98890.63;5044187;28;20642;-79
2023/01/13 10:17:06;;;;;;;13.90;3.88;;;;;;;8.15;76.05;98881.41;5044450;28;20035;-79
2023/01/13 10:19:42;;;;;;;16.30;4.28;;;;;;;8.18;75.70;98897.97;5010740;28;20041;-81
2023/01/13 10:22:31;;;;;;;14.77;3.75;;;;;;;7.99;75.44;98889.56;5012120;28;20124;-80
2023/01/13 10:25:19;;;;;;;10.90;4.07;;;;;;;8.08;75.99;98889.00;5035853;28;20051;-81
2023/01/13 10:27:49;;;;;;;10.18;2.78;;;;;;;8.20;75.51;98886.03;5042936;28;20033;-79
2023/01/13 10:30:31;;;;;;;14.35;2.72;;;;;;;8.26;75.35;98880.31;5043254;28;20039;-78
2023/01/13 10:32:59;;;;;;;14.85;2.58;;;;;;;8.05;74.36;98887.66;5043298;28;20039;-78
2023/01/13 10:35:58;;;;;;;11.13;2.00;;;;;;;8.05;74.45;98887.66;5041349;28;20055;-79
2023/01/13 10:38:39;;;;;;;20.73;3.92;;;;;;;8.15;74.68;98889.56;5041959;28;20549;-79
2023/01/13 10:41:17;;;;;;;8.98;2.58;;;;;;;8.20;74.88;98896.91;5042173;28;20044;-79
2023/01/13 10:43:44;;;;;;;23.15;4.82;;;;;;;8.21;74.69;98899.34;5040598;28;20095;-80
2023/01/13 10:46:12;;;;;;;15.23;3.70;;;;;;;8.17;74.55;98900.97;5042126;28;20554;-79
2023/01/13 10:48:43;;;;;;;14.45;3.83;;;;;;;8.27;74.61;98900.16;5040764;28;20029;-78
2023/01/13 10:51:37;;;;;;;12.60;1.65;;;;;;;8.35;73.58;98896.09;5043592;28;20036;-78
2023/01/13 10:54:05;;;;;;;;;;;;;;;8.35;73.46;98885.22;5042876;28;20032;-81
2023/01/13 10:56:32;;;;;;;9.85;2.28;;;;;;;8.40;73.39;98893.38;5042637;28;20394;-79
2023/01/13 10:59:21;;;;;;;25.95;6.93;;;;;;;8.50;73.21;98893.38;5042872;28;20029;-80
2023/01/13 11:01:58;;;;;;;12.50;2.22;;;;;;;8.66;73.12;98904.28;5042840;28;20087;-80
2023/01/13 11:04:31;;;;;;;11.95;5.53;;;;;;;8.64;72.56;98887.44;5042699;28;20178;-79
2023/01/13 11:06:58;;;;;;;10.50;3.58;;;;;;;8.69;72.62;98887.41;5042841;28;20048;-80
2023/01/13 11:09:26;;;;;;;11.07;2.53;;;;;;;8.74;71.57;98887.41;5042589;28;20033;-79
2023/01/13 11:11:54;;;;;;;11.00;2.42;;;;;;;8.74;71.70;98892.84;5041759;28;20052;-78
2023/01/13 11:14:38;;;;;;;7.75;3.13;;;;;;;8.75;71.32;98891.75;5042741;28;20414;-78
2023/01/13 11:17:16;;;;;;;15.07;2.20;;;;;;;8.68;71.65;98888.50;5042580;28;20040;-80
2023/01/13 11:19:48;;;;;;;6.93;2.00;;;;;;;8.80;72.39;98890.94;5041994;28;20141;-78
2023/01/13 11:22:27;;;;;;;6.55;2.13;;;;;;;8.82;71.61;98887.94;5041776;28;20471;-79
2023/01/13 11:24:57;;;;;;;16.17;3.40;;;;;;;8.83;71.32;98905.84;5042099;28;20048;-79
2023/01/13 11:27:44;;;;;;;10.98;2.33;;;;;;;8.68;72.33;98901.28;5042278;28;20247;-79
2023/01/13 11:30:31;;;;;;;17.27;2.40;;;;;;;8.50;74.74;98900.72;5042876;28;20082;-78
2023/01/13 11:33:09;;;;;;;16.85;3.22;;;;;;;8.40;76.60;98909.69;5042940;28;20142;-79
2023/01/13 11:35:44;;;;;;;10.43;2.15;;;;;;;8.43;77.58;98892.00;5043235;28;20190;-79
2023/01/13 11:38:27;;;;;;;16.75;3.70;;;;;;;8.24;77.02;98890.66;5042427;28;20088;-79
2023/01/13 11:40:55;;;;;;;8.02;2.85;;;;;;;8.32;76.80;98918.38;5041407;28;20082;-79
2023/01/13 11:43:43;;;;;;;19.83;3.50;;;;;;;8.44;76.67;98899.88;5042484;28;20033;-79
2023/01/13 11:46:09;;;;;;;13.95;3.47;;;;;;;8.35;76.27;98918.63;5042113;28;20076;-79
2023/01/13 11:48:40;;;;;;;10.32;3.03;;;;;;;8.41;77.30;98903.16;5041970;28;20033;-79
2023/01/13 11:51:22;;;;;;;11.38;2.47;;;;;;;8.38;77.83;98923.50;5042511;28;20033;-79
2023/01/13 11:54:27;;;;;;;9.43;2.35;;;;;;;8.35;78.00;98915.09;5042760;28;20021;-79
2023/01/13 11:57:08;;;;;;;12.18;3.63;;;;;;;8.27;77.19;98906.41;5041977;28;20513;-79
2023/01/13 11:59:51;;;;;;;7.47;2.40;;;;;;;8.37;77.12;98921.06;5040781;28;20067;-79
2023/01/13 12:02:36;;;;;;;7.07;1.95;;;;;;;8.47;76.40;98917.53;5042629;28;20048;-81
2023/01/13 12:05:17;;;;;;;8.57;2.30;;;;;;;8.46;75.92;98913.22;5042873;28;20032;-79
2023/01/13 12:08:01;;;;;;;10.95;3.38;;;;;;;8.60;75.72;98919.75;5041742;28;20683;-79
2023/01/13 12:10:45;;;;;;;14.48;3.60;;;;;;;8.53;75.68;98919.19;5041679;28;20796;-78
2023/01/13 12:13:35;;;;;;;19.50;3.63;;;;;;;8.60;76.26;98916.22;5042199;28;20047;-80
2023/01/13 12:16:15;;;;;;;10.88;4.13;;;;;;;8.41;77.73;98927.59;5042644;28;20354;-79
2023/01/13 12:19:06;;;;;;;25.17;3.95;;;;;;;8.28;78.92;98928.94;5041981;28;20486;-81
2023/01/13 12:21:39;;;;;;;11.65;4.22;;;;;;;8.33;78.90;98930.84;5041122;28;20567;-82
2023/01/13 12:24:12;;;;;;;9.90;2.15;;;;;;;8.27;80.00;98922.72;5045416;28;20059;-80
2023/01/13 12:26:42;;;;;;;25.88;6.57;;;;;;;8.32;80.23;98937.38;5045840;28;20045;-79
2023/01/13 12:29:18;;;;;;;10.25;2.70;;;;;;;8.17;80.77;98934.38;5045638;28;20470;-80
2023/01/13 12:31:47;;;;;;;11.65;2.75;;;;;;;8.00;81.54;98940.03;5046190;28;20091;-80
2023/01/13 12:34:31;;;;;;;6.90;2.47;;;;;;;8.00;82.22;98950.88;5045753;28;20037;-80
2023/01/13 12:37:07;;;;;;;11.40;3.67;;;;;;;8.01;83.33;98963.41;5045868;28;20025;-81
2023/01/13 12:39:51;;;;;;;15.25;2.50;;;;;;;7.92;84.11;98963.09;5045069;28;21191;-80
2023/01/13 12:45:31;;;;;;;8.65;2.17;;;;;;;7.66;84.66;98956.75;5045528;28;20453;-79